Aérodrome :
LOGIN :

S'inscrire | Disclaimer

   EN    FR    IT 

 










Légende :    VFR   VFR Marginal   IFR   IFR Intensif   IFR Très Intensif
Visi : 
Plafond : 
>= 8 km
>= 3000ft
5 à 8 km
1000 à 3000 ft
1500m à 5 km
500 à 1000 ft
800 à 1500m
200 à 500 ft
< 800m
< 200 ft
Symboles :   Orages  Brouillard  Fortes neiges  Fortes précipitations  Vent > 20 kt
SIGMETs :   Divers  Orages  Givrage  Turbulence  Onde Orograph.  Cendres Volcan.







- Altitude de l'aérodrome : 876 ft
- Code IATA : MBX


LJMB - Maribor

DERNIER METAR :
  • 241930Z VRB01KT CAVOK 08/04 Q1030

METARs EXPIRÉS :
  • 241900Z 33001KT CAVOK 08/04 Q1030
  • 241830Z 00000KT CAVOK 09/03 Q1029
  • 241800Z 00000KT CAVOK 10/02 Q1029
  • 241730Z VRB02KT CAVOK 10/02 Q1028
  • 241700Z 31004KT CAVOK 12/02 Q1028

TAF TAF LJMB
Valide du 24 à 18h jusqu'au 25 à 18h UTC


241700Z 2418/2518 36005KT CAVOK
TEMPO 2506/2518 01010KT SCT040 BKN060
Pas de NOTAMs connus pour ce terrain.



MET'MAP, la Météo Aéronautique d'un coup d'oeil ! - Copyright ORBIFLY Décembre 2007 - Disclaimer

ORBIFLY MET'MAP TEAM :

Programmation & Développement : Alexandra Zaïnal
Conception & Développement : Baudouin d'Aumeries
Co-Programmation & Développement : Marc-Olivier Méhu
Soutien technique & logistique : Manuel Goepfert

Contact : metmap@orbifly.com




SOURCES & CREDITS :

   NOAA